sensor_id;sensor_type;location;lat;lon;timestamp;P1;durP1;ratioP1;P2;durP2;ratioP2
55539;SDS011;41384;51.418;7.286;2022-07-29T00:02:02;4.72;;;1.52;;
55539;SDS011;41384;51.418;7.286;2022-07-29T00:04:27;4.63;;;1.75;;
55539;SDS011;41384;51.418;7.286;2022-07-29T00:06:53;4.28;;;1.80;;
55539;SDS011;41384;51.418;7.286;2022-07-29T00:09:18;2.42;;;1.50;;
55539;SDS011;41384;51.418;7.286;2022-07-29T00:11:43;5.90;;;2.03;;
55539;SDS011;41384;51.418;7.286;2022-07-29T00:14:08;3.60;;;1.50;;
55539;SDS011;41384;51.418;7.286;2022-07-29T00:16:34;2.88;;;1.73;;
55539;SDS011;41384;51.418;7.286;2022-07-29T00:19:00;6.90;;;1.80;;
55539;SDS011;41384;51.418;7.286;2022-07-29T00:21:25;6.13;;;2.05;;
55539;SDS011;41384;51.418;7.286;2022-07-29T00:23:50;2.55;;;1.42;;
55539;SDS011;41384;51.418;7.286;2022-07-29T00:26:16;5.97;;;1.30;;
55539;SDS011;41384;51.418;7.286;2022-07-29T00:28:41;4.50;;;1.70;;
55539;SDS011;41384;51.418;7.286;2022-07-29T00:31:06;3.33;;;1.50;;
55539;SDS011;41384;51.418;7.286;2022-07-29T00:33:32;1.73;;;1.20;;
55539;SDS011;41384;51.418;7.286;2022-07-29T00:35:58;5.85;;;1.38;;
55539;SDS011;41384;51.418;7.286;2022-07-29T00:38:23;3.70;;;1.55;;
55539;SDS011;41384;51.418;7.286;2022-07-29T00:40:48;3.83;;;1.35;;
55539;SDS011;41384;51.418;7.286;2022-07-29T00:43:14;6.32;;;1.58;;
55539;SDS011;41384;51.418;7.286;2022-07-29T00:45:40;5.50;;;1.58;;
55539;SDS011;41384;51.418;7.286;2022-07-29T00:48:06;3.13;;;1.55;;
55539;SDS011;41384;51.418;7.286;2022-07-29T00:50:33;3.92;;;1.50;;
55539;SDS011;41384;51.418;7.286;2022-07-29T00:52:59;2.63;;;1.52;;
55539;SDS011;41384;51.418;7.286;2022-07-29T00:55:26;2.92;;;1.30;;
55539;SDS011;41384;51.418;7.286;2022-07-29T00:57:51;3.38;;;1.48;;
55539;SDS011;41384;51.418;7.286;2022-07-29T01:00:19;5.97;;;1.95;;
55539;SDS011;41384;51.418;7.286;2022-07-29T01:02:49;4.47;;;1.60;;
55539;SDS011;41384;51.418;7.286;2022-07-29T01:05:19;4.65;;;1.48;;
55539;SDS011;41384;51.418;7.286;2022-07-29T01:07:46;3.85;;;1.40;;
55539;SDS011;41384;51.418;7.286;2022-07-29T01:10:15;5.55;;;1.98;;
55539;SDS011;41384;51.418;7.286;2022-07-29T01:12:42;7.57;;;1.83;;
55539;SDS011;41384;51.418;7.286;2022-07-29T01:15:09;2.55;;;1.30;;
55539;SDS011;41384;51.418;7.286;2022-07-29T01:23:18;4.40;;;1.42;;
55539;SDS011;41384;51.418;7.286;2022-07-29T01:26:16;5.45;;;1.50;;
55539;SDS011;41384;51.418;7.286;2022-07-29T01:28:47;2.00;;;1.27;;
55539;SDS011;41384;51.418;7.286;2022-07-29T01:31:20;3.95;;;1.30;;
55539;SDS011;41384;51.418;7.286;2022-07-29T01:33:53;5.72;;;1.25;;
55539;SDS011;41384;51.418;7.286;2022-07-29T01:36:23;4.07;;;1.42;;
55539;SDS011;41384;51.418;7.286;2022-07-29T01:39:02;4.85;;;1.55;;
55539;SDS011;41384;51.418;7.286;2022-07-29T01:41:28;4.03;;;1.20;;
55539;SDS011;41384;51.418;7.286;2022-07-29T01:43:57;5.18;;;1.27;;
55539;SDS011;41384;51.418;7.286;2022-07-29T01:46:28;5.40;;;1.60;;
55539;SDS011;41384;51.418;7.286;2022-07-29T01:49:00;6.40;;;1.35;;
55539;SDS011;41384;51.418;7.286;2022-07-29T01:51:33;6.88;;;1.60;;
55539;SDS011;41384;51.418;7.286;2022-07-29T01:54:12;3.95;;;1.38;;
55539;SDS011;41384;51.418;7.286;2022-07-29T01:56:43;4.80;;;1.30;;
55539;SDS011;41384;51.418;7.286;2022-07-29T01:59:11;5.50;;;1.52;;
55539;SDS011;41384;51.418;7.286;2022-07-29T02:01:37;3.85;;;1.13;;
55539;SDS011;41384;51.418;7.286;2022-07-29T02:04:06;3.83;;;1.67;;
55539;SDS011;41384;51.418;7.286;2022-07-29T02:06:35;2.55;;;1.23;;
55539;SDS011;41384;51.418;7.286;2022-07-29T02:09:02;2.50;;;1.17;;
55539;SDS011;41384;51.418;7.286;2022-07-29T02:11:30;3.83;;;1.45;;
55539;SDS011;41384;51.418;7.286;2022-07-29T02:13:58;5.05;;;1.40;;
55539;SDS011;41384;51.418;7.286;2022-07-29T02:16:24;3.78;;;1.17;;
55539;SDS011;41384;51.418;7.286;2022-07-29T02:18:54;6.38;;;1.40;;
55539;SDS011;41384;51.418;7.286;2022-07-29T02:21:22;2.47;;;1.10;;
55539;SDS011;41384;51.418;7.286;2022-07-29T02:23:49;6.57;;;1.23;;
55539;SDS011;41384;51.418;7.286;2022-07-29T02:26:18;4.85;;;1.30;;
55539;SDS011;41384;51.418;7.286;2022-07-29T02:28:45;4.63;;;1.55;;
55539;SDS011;41384;51.418;7.286;2022-07-29T02:31:12;4.93;;;1.42;;
55539;SDS011;41384;51.418;7.286;2022-07-29T02:33:38;6.57;;;1.40;;
55539;SDS011;41384;51.418;7.286;2022-07-29T02:36:05;2.38;;;1.30;;
55539;SDS011;41384;51.418;7.286;2022-07-29T02:38:31;2.97;;;1.23;;
55539;SDS011;41384;51.418;7.286;2022-07-29T02:41:18;3.08;;;1.50;;
55539;SDS011;41384;51.418;7.286;2022-07-29T02:43:47;4.10;;;1.25;;
55539;SDS011;41384;51.418;7.286;2022-07-29T02:46:19;3.80;;;1.40;;
55539;SDS011;41384;51.418;7.286;2022-07-29T02:48:56;4.50;;;1.63;;
55539;SDS011;41384;51.418;7.286;2022-07-29T02:51:36;5.13;;;1.60;;
55539;SDS011;41384;51.418;7.286;2022-07-29T02:54:10;3.28;;;1.10;;
55539;SDS011;41384;51.418;7.286;2022-07-29T02:56:40;3.45;;;1.50;;
55539;SDS011;41384;51.418;7.286;2022-07-29T02:59:10;2.63;;;1.40;;
55539;SDS011;41384;51.418;7.286;2022-07-29T03:01:39;5.20;;;1.40;;
55539;SDS011;41384;51.418;7.286;2022-07-29T03:04:07;5.72;;;1.48;;
55539;SDS011;41384;51.418;7.286;2022-07-29T03:06:34;3.40;;;1.30;;
55539;SDS011;41384;51.418;7.286;2022-07-29T03:09:02;5.13;;;1.30;;
55539;SDS011;41384;51.418;7.286;2022-07-29T03:11:27;3.92;;;1.40;;
55539;SDS011;41384;51.418;7.286;2022-07-29T03:13:54;4.60;;;1.50;;
55539;SDS011;41384;51.418;7.286;2022-07-29T03:16:20;5.00;;;1.38;;
55539;SDS011;41384;51.418;7.286;2022-07-29T03:18:47;6.70;;;1.30;;
55539;SDS011;41384;51.418;7.286;2022-07-29T03:21:13;7.78;;;1.40;;
55539;SDS011;41384;51.418;7.286;2022-07-29T03:23:39;4.15;;;1.40;;
55539;SDS011;41384;51.418;7.286;2022-07-29T03:26:10;4.43;;;1.48;;
55539;SDS011;41384;51.418;7.286;2022-07-29T03:28:35;3.42;;;1.52;;
55539;SDS011;41384;51.418;7.286;2022-07-29T03:31:01;5.35;;;1.40;;
55539;SDS011;41384;51.418;7.286;2022-07-29T03:33:26;3.47;;;1.65;;
55539;SDS011;41384;51.418;7.286;2022-07-29T03:35:53;3.33;;;1.30;;
55539;SDS011;41384;51.418;7.286;2022-07-29T03:38:18;5.57;;;1.75;;
55539;SDS011;41384;51.418;7.286;2022-07-29T03:40:49;6.35;;;1.60;;
55539;SDS011;41384;51.418;7.286;2022-07-29T03:43:21;3.53;;;1.50;;
55539;SDS011;41384;51.418;7.286;2022-07-29T03:45:50;6.20;;;1.50;;
55539;SDS011;41384;51.418;7.286;2022-07-29T03:48:20;5.68;;;1.70;;
55539;SDS011;41384;51.418;7.286;2022-07-29T03:50:47;5.30;;;1.40;;
55539;SDS011;41384;51.418;7.286;2022-07-29T03:53:12;6.95;;;1.70;;
55539;SDS011;41384;51.418;7.286;2022-07-29T03:55:42;5.55;;;1.60;;
55539;SDS011;41384;51.418;7.286;2022-07-29T03:58:10;4.68;;;1.60;;
55539;SDS011;41384;51.418;7.286;2022-07-29T04:00:38;3.00;;;1.42;;
55539;SDS011;41384;51.418;7.286;2022-07-29T04:03:04;3.42;;;1.45;;
55539;SDS011;41384;51.418;7.286;2022-07-29T04:05:30;4.43;;;1.40;;
55539;SDS011;41384;51.418;7.286;2022-07-29T04:07:55;3.65;;;1.50;;
55539;SDS011;41384;51.418;7.286;2022-07-29T04:10:20;6.80;;;1.60;;
55539;SDS011;41384;51.418;7.286;2022-07-29T04:12:48;5.45;;;1.42;;
55539;SDS011;41384;51.418;7.286;2022-07-29T04:15:13;5.38;;;1.50;;
55539;SDS011;41384;51.418;7.286;2022-07-29T04:17:38;4.13;;;1.77;;
55539;SDS011;41384;51.418;7.286;2022-07-29T04:20:04;5.22;;;1.60;;
55539;SDS011;41384;51.418;7.286;2022-07-29T04:22:30;4.03;;;1.77;;
55539;SDS011;41384;51.418;7.286;2022-07-29T04:24:55;5.53;;;1.50;;
55539;SDS011;41384;51.418;7.286;2022-07-29T04:27:21;6.03;;;1.65;;
55539;SDS011;41384;51.418;7.286;2022-07-29T04:29:46;2.90;;;1.38;;
55539;SDS011;41384;51.418;7.286;2022-07-29T04:32:11;3.40;;;1.60;;
55539;SDS011;41384;51.418;7.286;2022-07-29T04:34:37;6.50;;;1.60;;
55539;SDS011;41384;51.418;7.286;2022-07-29T04:37:02;3.05;;;1.30;;
55539;SDS011;41384;51.418;7.286;2022-07-29T04:39:27;6.53;;;1.70;;
55539;SDS011;41384;51.418;7.286;2022-07-29T04:41:53;9.43;;;1.85;;
55539;SDS011;41384;51.418;7.286;2022-07-29T04:44:18;3.63;;;1.23;;
55539;SDS011;41384;51.418;7.286;2022-07-29T04:46:43;4.35;;;1.75;;
55539;SDS011;41384;51.418;7.286;2022-07-29T04:49:09;14.32;;;2.85;;
55539;SDS011;41384;51.418;7.286;2022-07-29T04:51:34;7.93;;;1.80;;
55539;SDS011;41384;51.418;7.286;2022-07-29T04:53:59;10.13;;;2.33;;
55539;SDS011;41384;51.418;7.286;2022-07-29T04:56:25;11.77;;;2.88;;
55539;SDS011;41384;51.418;7.286;2022-07-29T04:58:50;9.35;;;2.50;;
55539;SDS011;41384;51.418;7.286;2022-07-29T05:01:15;6.00;;;2.13;;
55539;SDS011;41384;51.418;7.286;2022-07-29T05:03:41;4.28;;;1.90;;
55539;SDS011;41384;51.418;7.286;2022-07-29T05:06:06;4.43;;;2.83;;
55539;SDS011;41384;51.418;7.286;2022-07-29T05:08:32;5.53;;;1.80;;
55539;SDS011;41384;51.418;7.286;2022-07-29T05:10:57;6.07;;;2.10;;
55539;SDS011;41384;51.418;7.286;2022-07-29T05:13:22;6.18;;;2.30;;
55539;SDS011;41384;51.418;7.286;2022-07-29T05:15:48;3.80;;;2.10;;
55539;SDS011;41384;51.418;7.286;2022-07-29T05:18:13;7.25;;;2.40;;
55539;SDS011;41384;51.418;7.286;2022-07-29T05:20:39;9.23;;;2.33;;
55539;SDS011;41384;51.418;7.286;2022-07-29T05:23:04;6.15;;;2.60;;
55539;SDS011;41384;51.418;7.286;2022-07-29T05:25:29;8.18;;;2.58;;
55539;SDS011;41384;51.418;7.286;2022-07-29T05:27:55;6.18;;;2.30;;
55539;SDS011;41384;51.418;7.286;2022-07-29T05:30:21;8.43;;;2.50;;
55539;SDS011;41384;51.418;7.286;2022-07-29T05:32:46;8.20;;;2.70;;
55539;SDS011;41384;51.418;7.286;2022-07-29T05:35:12;4.38;;;2.08;;
55539;SDS011;41384;51.418;7.286;2022-07-29T05:37:38;6.20;;;2.20;;
55539;SDS011;41384;51.418;7.286;2022-07-29T05:40:04;6.38;;;2.45;;
55539;SDS011;41384;51.418;7.286;2022-07-29T05:42:30;5.40;;;2.25;;
55539;SDS011;41384;51.418;7.286;2022-07-29T05:44:55;3.17;;;2.20;;
55539;SDS011;41384;51.418;7.286;2022-07-29T05:47:21;7.63;;;2.30;;
55539;SDS011;41384;51.418;7.286;2022-07-29T05:49:47;6.40;;;2.58;;
55539;SDS011;41384;51.418;7.286;2022-07-29T05:52:12;5.25;;;2.15;;
55539;SDS011;41384;51.418;7.286;2022-07-29T05:54:38;6.78;;;2.67;;
55539;SDS011;41384;51.418;7.286;2022-07-29T05:57:03;6.80;;;2.42;;
55539;SDS011;41384;51.418;7.286;2022-07-29T05:59:30;6.55;;;2.50;;
55539;SDS011;41384;51.418;7.286;2022-07-29T06:01:56;5.43;;;2.08;;
55539;SDS011;41384;51.418;7.286;2022-07-29T06:04:22;4.95;;;2.65;;
55539;SDS011;41384;51.418;7.286;2022-07-29T06:06:47;5.47;;;2.72;;
55539;SDS011;41384;51.418;7.286;2022-07-29T06:09:13;5.40;;;2.20;;
55539;SDS011;41384;51.418;7.286;2022-07-29T06:11:38;4.10;;;2.03;;
55539;SDS011;41384;51.418;7.286;2022-07-29T06:14:04;6.68;;;2.58;;
55539;SDS011;41384;51.418;7.286;2022-07-29T06:16:29;6.07;;;2.50;;
55539;SDS011;41384;51.418;7.286;2022-07-29T06:18:54;6.15;;;2.45;;
55539;SDS011;41384;51.418;7.286;2022-07-29T06:21:20;4.38;;;2.97;;
55539;SDS011;41384;51.418;7.286;2022-07-29T06:23:45;4.50;;;2.70;;
55539;SDS011;41384;51.418;7.286;2022-07-29T06:26:10;5.78;;;2.33;;
55539;SDS011;41384;51.418;7.286;2022-07-29T06:28:36;9.25;;;2.67;;
55539;SDS011;41384;51.418;7.286;2022-07-29T06:31:01;7.45;;;2.35;;
55539;SDS011;41384;51.418;7.286;2022-07-29T06:33:26;19.85;;;3.40;;
55539;SDS011;41384;51.418;7.286;2022-07-29T06:35:52;7.57;;;3.30;;
55539;SDS011;41384;51.418;7.286;2022-07-29T06:38:17;7.47;;;2.95;;
55539;SDS011;41384;51.418;7.286;2022-07-29T06:40:43;6.57;;;2.70;;
55539;SDS011;41384;51.418;7.286;2022-07-29T06:46:04;5.20;;;2.22;;
55539;SDS011;41384;51.418;7.286;2022-07-29T06:48:32;5.97;;;2.58;;
55539;SDS011;41384;51.418;7.286;2022-07-29T06:50:58;5.25;;;2.53;;
55539;SDS011;41384;51.418;7.286;2022-07-29T06:53:24;5.15;;;2.60;;
55539;SDS011;41384;51.418;7.286;2022-07-29T06:55:49;6.10;;;2.17;;
55539;SDS011;41384;51.418;7.286;2022-07-29T06:58:15;4.25;;;2.35;;
55539;SDS011;41384;51.418;7.286;2022-07-29T07:00:43;5.57;;;2.20;;
55539;SDS011;41384;51.418;7.286;2022-07-29T07:03:09;7.22;;;2.25;;
55539;SDS011;41384;51.418;7.286;2022-07-29T07:05:34;7.53;;;2.60;;
55539;SDS011;41384;51.418;7.286;2022-07-29T07:07:59;8.75;;;2.72;;
55539;SDS011;41384;51.418;7.286;2022-07-29T07:10:25;6.65;;;2.42;;
55539;SDS011;41384;51.418;7.286;2022-07-29T07:12:50;6.40;;;2.47;;
55539;SDS011;41384;51.418;7.286;2022-07-29T07:15:15;6.68;;;2.10;;
55539;SDS011;41384;51.418;7.286;2022-07-29T07:17:41;4.82;;;2.30;;
55539;SDS011;41384;51.418;7.286;2022-07-29T07:20:06;7.07;;;2.20;;
55539;SDS011;41384;51.418;7.286;2022-07-29T07:22:32;6.25;;;2.33;;
55539;SDS011;41384;51.418;7.286;2022-07-29T07:24:57;4.65;;;2.30;;
55539;SDS011;41384;51.418;7.286;2022-07-29T07:27:22;3.33;;;2.03;;
55539;SDS011;41384;51.418;7.286;2022-07-29T07:29:48;4.00;;;2.50;;
55539;SDS011;41384;51.418;7.286;2022-07-29T07:32:13;4.60;;;2.70;;
55539;SDS011;41384;51.418;7.286;2022-07-29T07:34:41;4.80;;;2.42;;
55539;SDS011;41384;51.418;7.286;2022-07-29T07:37:06;3.03;;;2.17;;
55539;SDS011;41384;51.418;7.286;2022-07-29T07:39:31;3.33;;;2.30;;
55539;SDS011;41384;51.418;7.286;2022-07-29T07:41:57;4.93;;;2.22;;
55539;SDS011;41384;51.418;7.286;2022-07-29T07:44:22;4.82;;;2.58;;
55539;SDS011;41384;51.418;7.286;2022-07-29T07:46:47;5.55;;;2.25;;
55539;SDS011;41384;51.418;7.286;2022-07-29T07:49:13;5.43;;;1.98;;
55539;SDS011;41384;51.418;7.286;2022-07-29T07:51:38;7.10;;;2.22;;
55539;SDS011;41384;51.418;7.286;2022-07-29T07:54:03;4.47;;;2.03;;
55539;SDS011;41384;51.418;7.286;2022-07-29T07:56:28;5.35;;;2.47;;
55539;SDS011;41384;51.418;7.286;2022-07-29T07:58:54;4.63;;;2.05;;
55539;SDS011;41384;51.418;7.286;2022-07-29T08:01:19;8.02;;;2.17;;
55539;SDS011;41384;51.418;7.286;2022-07-29T08:03:47;4.53;;;2.47;;
55539;SDS011;41384;51.418;7.286;2022-07-29T08:06:14;6.22;;;2.28;;
55539;SDS011;41384;51.418;7.286;2022-07-29T08:08:39;6.28;;;2.13;;
55539;SDS011;41384;51.418;7.286;2022-07-29T08:11:04;4.97;;;2.40;;
55539;SDS011;41384;51.418;7.286;2022-07-29T08:13:31;5.68;;;2.28;;
55539;SDS011;41384;51.418;7.286;2022-07-29T08:15:57;8.40;;;2.63;;
55539;SDS011;41384;51.418;7.286;2022-07-29T08:18:28;5.45;;;2.58;;
55539;SDS011;41384;51.418;7.286;2022-07-29T08:20:55;4.50;;;2.50;;
55539;SDS011;41384;51.418;7.286;2022-07-29T08:23:21;4.70;;;2.45;;
55539;SDS011;41384;51.418;7.286;2022-07-29T08:25:48;8.45;;;2.65;;
55539;SDS011;41384;51.418;7.286;2022-07-29T08:28:13;7.03;;;2.08;;
55539;SDS011;41384;51.418;7.286;2022-07-29T08:30:39;4.85;;;1.98;;
55539;SDS011;41384;51.418;7.286;2022-07-29T08:33:04;4.50;;;2.15;;
55539;SDS011;41384;51.418;7.286;2022-07-29T08:35:30;4.03;;;1.90;;
55539;SDS011;41384;51.418;7.286;2022-07-29T08:37:55;4.30;;;2.70;;
55539;SDS011;41384;51.418;7.286;2022-07-29T08:40:21;4.88;;;2.20;;
55539;SDS011;41384;51.418;7.286;2022-07-29T08:42:48;4.53;;;2.58;;
55539;SDS011;41384;51.418;7.286;2022-07-29T08:45:14;5.32;;;2.30;;
55539;SDS011;41384;51.418;7.286;2022-07-29T08:47:40;4.03;;;1.90;;
55539;SDS011;41384;51.418;7.286;2022-07-29T08:50:06;5.03;;;2.05;;
55539;SDS011;41384;51.418;7.286;2022-07-29T08:52:34;5.22;;;2.05;;
55539;SDS011;41384;51.418;7.286;2022-07-29T08:55:02;5.07;;;2.22;;
55539;SDS011;41384;51.418;7.286;2022-07-29T08:57:28;4.78;;;2.15;;
55539;SDS011;41384;51.418;7.286;2022-07-29T08:59:54;4.75;;;2.08;;
55539;SDS011;41384;51.418;7.286;2022-07-29T09:02:22;4.10;;;2.10;;
55539;SDS011;41384;51.418;7.286;2022-07-29T09:04:52;6.57;;;2.25;;
55539;SDS011;41384;51.418;7.286;2022-07-29T09:07:18;4.68;;;2.15;;
55539;SDS011;41384;51.418;7.286;2022-07-29T09:09:44;6.60;;;2.53;;
55539;SDS011;41384;51.418;7.286;2022-07-29T09:12:10;9.63;;;2.70;;
55539;SDS011;41384;51.418;7.286;2022-07-29T09:14:39;6.22;;;2.67;;
55539;SDS011;41384;51.418;7.286;2022-07-29T09:17:04;4.38;;;2.03;;
55539;SDS011;41384;51.418;7.286;2022-07-29T09:19:32;6.38;;;2.45;;
55539;SDS011;41384;51.418;7.286;2022-07-29T09:22:00;5.72;;;2.40;;
55539;SDS011;41384;51.418;7.286;2022-07-29T09:24:43;3.17;;;2.42;;
55539;SDS011;41384;51.418;7.286;2022-07-29T09:29:37;4.07;;;2.00;;
55539;SDS011;41384;51.418;7.286;2022-07-29T09:32:05;4.07;;;2.00;;
55539;SDS011;41384;51.418;7.286;2022-07-29T09:34:34;8.88;;;2.35;;
55539;SDS011;41384;51.418;7.286;2022-07-29T09:36:59;7.57;;;2.40;;
55539;SDS011;41384;51.418;7.286;2022-07-29T09:39:36;4.57;;;2.03;;
55539;SDS011;41384;51.418;7.286;2022-07-29T09:42:06;3.83;;;2.10;;
55539;SDS011;41384;51.418;7.286;2022-07-29T09:47:40;6.57;;;1.90;;
55539;SDS011;41384;51.418;7.286;2022-07-29T09:50:10;7.15;;;2.10;;
55539;SDS011;41384;51.418;7.286;2022-07-29T09:52:44;8.95;;;2.08;;
55539;SDS011;41384;51.418;7.286;2022-07-29T09:55:14;6.43;;;1.90;;
55539;SDS011;41384;51.418;7.286;2022-07-29T09:57:40;6.22;;;2.13;;
55539;SDS011;41384;51.418;7.286;2022-07-29T10:02:36;5.75;;;2.00;;
55539;SDS011;41384;51.418;7.286;2022-07-29T10:05:04;6.03;;;1.83;;
55539;SDS011;41384;51.418;7.286;2022-07-29T10:07:44;7.85;;;2.25;;
55539;SDS011;41384;51.418;7.286;2022-07-29T10:10:17;7.00;;;2.30;;
55539;SDS011;41384;51.418;7.286;2022-07-29T10:12:55;4.63;;;2.17;;
55539;SDS011;41384;51.418;7.286;2022-07-29T10:15:25;5.28;;;2.25;;
55539;SDS011;41384;51.418;7.286;2022-07-29T10:17:52;9.23;;;3.03;;
55539;SDS011;41384;51.418;7.286;2022-07-29T10:20:19;3.45;;;1.90;;
55539;SDS011;41384;51.418;7.286;2022-07-29T10:22:46;6.15;;;2.20;;
55539;SDS011;41384;51.418;7.286;2022-07-29T10:25:13;3.10;;;1.90;;
55539;SDS011;41384;51.418;7.286;2022-07-29T10:27:39;5.50;;;2.45;;
55539;SDS011;41384;51.418;7.286;2022-07-29T10:30:04;7.85;;;3.10;;
55539;SDS011;41384;51.418;7.286;2022-07-29T10:33:16;4.95;;;2.70;;
55539;SDS011;41384;51.418;7.286;2022-07-29T10:43:51;8.63;;;2.78;;
55539;SDS011;41384;51.418;7.286;2022-07-29T10:46:18;6.30;;;3.17;;
55539;SDS011;41384;51.418;7.286;2022-07-29T10:54:18;6.40;;;3.10;;
55539;SDS011;41384;51.418;7.286;2022-07-29T10:57:18;7.38;;;3.08;;
55539;SDS011;41384;51.418;7.286;2022-07-29T10:59:51;4.38;;;2.47;;
55539;SDS011;41384;51.418;7.286;2022-07-29T11:05:08;8.93;;;6.45;;
55539;SDS011;41384;51.418;7.286;2022-07-29T11:07:35;7.82;;;4.32;;
55539;SDS011;41384;51.418;7.286;2022-07-29T11:15:02;6.32;;;2.83;;
55539;SDS011;41384;51.418;7.286;2022-07-29T11:17:30;8.43;;;3.00;;
55539;SDS011;41384;51.418;7.286;2022-07-29T11:23:17;6.68;;;3.90;;
55539;SDS011;41384;51.418;7.286;2022-07-29T11:42:51;4.60;;;3.20;;
55539;SDS011;41384;51.418;7.286;2022-07-29T11:47:35;6.45;;;3.70;;
55539;SDS011;41384;51.418;7.286;2022-07-29T11:50:06;7.78;;;3.75;;
55539;SDS011;41384;51.418;7.286;2022-07-29T11:52:41;4.43;;;2.90;;
55539;SDS011;41384;51.418;7.286;2022-07-29T11:55:08;8.27;;;3.67;;
55539;SDS011;41384;51.418;7.286;2022-07-29T11:57:37;12.32;;;3.40;;
55539;SDS011;41384;51.418;7.286;2022-07-29T12:00:10;7.82;;;3.58;;
55539;SDS011;41384;51.418;7.286;2022-07-29T12:02:41;8.25;;;3.70;;
55539;SDS011;41384;51.418;7.286;2022-07-29T12:05:08;8.02;;;3.50;;
55539;SDS011;41384;51.418;7.286;2022-07-29T12:07:36;8.25;;;3.45;;
55539;SDS011;41384;51.418;7.286;2022-07-29T12:10:03;6.28;;;3.83;;
55539;SDS011;41384;51.418;7.286;2022-07-29T12:12:29;6.50;;;3.75;;
55539;SDS011;41384;51.418;7.286;2022-07-29T12:14:55;7.22;;;4.10;;
55539;SDS011;41384;51.418;7.286;2022-07-29T12:17:33;4.32;;;3.00;;
55539;SDS011;41384;51.418;7.286;2022-07-29T12:20:03;6.72;;;3.70;;
55539;SDS011;41384;51.418;7.286;2022-07-29T12:22:30;7.57;;;2.95;;
55539;SDS011;41384;51.418;7.286;2022-07-29T12:25:01;6.55;;;4.00;;
55539;SDS011;41384;51.418;7.286;2022-07-29T12:27:30;8.00;;;3.40;;
55539;SDS011;41384;51.418;7.286;2022-07-29T12:30:01;6.45;;;3.42;;
55539;SDS011;41384;51.418;7.286;2022-07-29T12:32:34;5.50;;;2.90;;
55539;SDS011;41384;51.418;7.286;2022-07-29T12:35:11;3.90;;;2.72;;
55539;SDS011;41384;51.418;7.286;2022-07-29T12:37:38;13.15;;;9.65;;
55539;SDS011;41384;51.418;7.286;2022-07-29T12:40:07;5.82;;;3.25;;
55539;SDS011;41384;51.418;7.286;2022-07-29T12:42:34;7.57;;;3.42;;
55539;SDS011;41384;51.418;7.286;2022-07-29T12:45:00;6.65;;;2.90;;
55539;SDS011;41384;51.418;7.286;2022-07-29T12:47:26;7.10;;;3.05;;
55539;SDS011;41384;51.418;7.286;2022-07-29T12:50:07;6.15;;;3.03;;
55539;SDS011;41384;51.418;7.286;2022-07-29T12:52:37;7.07;;;2.80;;
55539;SDS011;41384;51.418;7.286;2022-07-29T12:55:02;6.45;;;2.97;;
55539;SDS011;41384;51.418;7.286;2022-07-29T12:57:29;6.15;;;2.80;;
55539;SDS011;41384;51.418;7.286;2022-07-29T12:59:58;7.80;;;2.63;;
55539;SDS011;41384;51.418;7.286;2022-07-29T13:02:25;5.03;;;2.63;;
55539;SDS011;41384;51.418;7.286;2022-07-29T13:04:56;10.10;;;2.65;;
55539;SDS011;41384;51.418;7.286;2022-07-29T13:07:24;3.72;;;1.83;;
55539;SDS011;41384;51.418;7.286;2022-07-29T13:09:52;3.35;;;2.30;;
55539;SDS011;41384;51.418;7.286;2022-07-29T13:12:18;5.43;;;2.60;;
55539;SDS011;41384;51.418;7.286;2022-07-29T13:14:44;7.10;;;2.30;;
55539;SDS011;41384;51.418;7.286;2022-07-29T13:17:17;8.60;;;3.00;;
55539;SDS011;41384;51.418;7.286;2022-07-29T13:19:53;7.55;;;2.65;;
55539;SDS011;41384;51.418;7.286;2022-07-29T13:22:30;9.40;;;3.10;;
55539;SDS011;41384;51.418;7.286;2022-07-29T13:24:56;9.95;;;3.10;;
55539;SDS011;41384;51.418;7.286;2022-07-29T13:27:24;4.95;;;2.83;;
55539;SDS011;41384;51.418;7.286;2022-07-29T13:29:51;5.68;;;2.38;;
55539;SDS011;41384;51.418;7.286;2022-07-29T13:32:21;5.60;;;2.35;;
55539;SDS011;41384;51.418;7.286;2022-07-29T13:34:47;4.88;;;2.22;;
55539;SDS011;41384;51.418;7.286;2022-07-29T13:37:12;4.05;;;2.50;;
55539;SDS011;41384;51.418;7.286;2022-07-29T13:39:37;7.60;;;2.75;;
55539;SDS011;41384;51.418;7.286;2022-07-29T13:42:03;9.52;;;2.53;;
55539;SDS011;41384;51.418;7.286;2022-07-29T13:44:30;4.68;;;2.22;;
55539;SDS011;41384;51.418;7.286;2022-07-29T13:46:55;8.60;;;2.40;;
55539;SDS011;41384;51.418;7.286;2022-07-29T13:49:21;4.57;;;2.33;;
55539;SDS011;41384;51.418;7.286;2022-07-29T13:51:46;3.67;;;2.25;;
55539;SDS011;41384;51.418;7.286;2022-07-29T13:54:11;5.10;;;1.92;;
55539;SDS011;41384;51.418;7.286;2022-07-29T13:56:36;5.32;;;2.70;;
55539;SDS011;41384;51.418;7.286;2022-07-29T13:59:02;4.75;;;2.58;;
55539;SDS011;41384;51.418;7.286;2022-07-29T14:01:27;6.95;;;1.83;;
55539;SDS011;41384;51.418;7.286;2022-07-29T14:03:52;6.60;;;2.22;;
55539;SDS011;41384;51.418;7.286;2022-07-29T14:06:18;5.32;;;2.20;;
55539;SDS011;41384;51.418;7.286;2022-07-29T14:08:44;4.47;;;2.00;;
55539;SDS011;41384;51.418;7.286;2022-07-29T14:11:09;6.00;;;2.80;;
55539;SDS011;41384;51.418;7.286;2022-07-29T14:13:34;6.07;;;2.80;;
55539;SDS011;41384;51.418;7.286;2022-07-29T14:16:00;5.13;;;2.33;;
55539;SDS011;41384;51.418;7.286;2022-07-29T14:18:25;4.88;;;2.50;;
55539;SDS011;41384;51.418;7.286;2022-07-29T14:20:50;3.58;;;2.13;;
55539;SDS011;41384;51.418;7.286;2022-07-29T14:23:16;4.53;;;2.45;;
55539;SDS011;41384;51.418;7.286;2022-07-29T14:25:42;7.35;;;2.13;;
55539;SDS011;41384;51.418;7.286;2022-07-29T14:28:07;8.60;;;2.55;;
55539;SDS011;41384;51.418;7.286;2022-07-29T14:30:32;7.18;;;2.50;;
55539;SDS011;41384;51.418;7.286;2022-07-29T14:32:58;5.00;;;2.10;;
55539;SDS011;41384;51.418;7.286;2022-07-29T14:35:23;7.07;;;2.28;;
55539;SDS011;41384;51.418;7.286;2022-07-29T14:37:48;5.47;;;1.80;;
55539;SDS011;41384;51.418;7.286;2022-07-29T14:40:14;4.93;;;2.40;;
55539;SDS011;41384;51.418;7.286;2022-07-29T14:42:39;3.00;;;1.92;;
55539;SDS011;41384;51.418;7.286;2022-07-29T14:45:05;4.13;;;1.92;;
55539;SDS011;41384;51.418;7.286;2022-07-29T14:47:31;6.50;;;2.05;;
55539;SDS011;41384;51.418;7.286;2022-07-29T14:49:57;5.40;;;2.00;;
55539;SDS011;41384;51.418;7.286;2022-07-29T14:52:22;4.05;;;2.33;;
55539;SDS011;41384;51.418;7.286;2022-07-29T14:54:47;4.88;;;2.30;;
55539;SDS011;41384;51.418;7.286;2022-07-29T14:57:13;6.07;;;2.13;;
55539;SDS011;41384;51.418;7.286;2022-07-29T14:59:38;5.82;;;2.05;;
55539;SDS011;41384;51.418;7.286;2022-07-29T15:02:03;5.88;;;2.15;;
55539;SDS011;41384;51.418;7.286;2022-07-29T15:04:29;4.50;;;2.03;;
55539;SDS011;41384;51.418;7.286;2022-07-29T15:06:55;4.35;;;1.98;;
55539;SDS011;41384;51.418;7.286;2022-07-29T15:09:20;7.43;;;2.03;;
55539;SDS011;41384;51.418;7.286;2022-07-29T15:11:45;5.10;;;1.75;;
55539;SDS011;41384;51.418;7.286;2022-07-29T15:14:10;5.10;;;2.05;;
55539;SDS011;41384;51.418;7.286;2022-07-29T15:16:36;4.75;;;2.20;;
55539;SDS011;41384;51.418;7.286;2022-07-29T15:19:02;3.53;;;1.90;;
55539;SDS011;41384;51.418;7.286;2022-07-29T15:21:28;4.97;;;2.33;;
55539;SDS011;41384;51.418;7.286;2022-07-29T15:23:53;6.85;;;2.00;;
55539;SDS011;41384;51.418;7.286;2022-07-29T15:26:19;7.40;;;2.10;;
55539;SDS011;41384;51.418;7.286;2022-07-29T15:28:45;6.93;;;2.00;;
55539;SDS011;41384;51.418;7.286;2022-07-29T15:31:10;3.85;;;1.88;;
55539;SDS011;41384;51.418;7.286;2022-07-29T15:33:35;3.63;;;1.67;;
55539;SDS011;41384;51.418;7.286;2022-07-29T15:36:01;4.38;;;1.50;;
55539;SDS011;41384;51.418;7.286;2022-07-29T15:38:26;5.70;;;1.98;;
55539;SDS011;41384;51.418;7.286;2022-07-29T15:40:51;2.53;;;1.42;;
55539;SDS011;41384;51.418;7.286;2022-07-29T15:43:17;4.93;;;1.67;;
55539;SDS011;41384;51.418;7.286;2022-07-29T15:45:42;4.20;;;1.50;;
55539;SDS011;41384;51.418;7.286;2022-07-29T15:48:30;7.75;;;2.25;;
55539;SDS011;41384;51.418;7.286;2022-07-29T15:50:56;4.47;;;1.60;;